createdAt,value
2019-06-26T00:01:19.035Z,99064.46
2019-06-26T00:03:23.878Z,99059.03
2019-06-26T00:05:28.835Z,99062.47
2019-06-26T00:07:32.724Z,99062.83
2019-06-26T00:09:36.627Z,99062.66
2019-06-26T00:11:40.512Z,99059.36
2019-06-26T00:13:44.442Z,99061.70
2019-06-26T00:15:48.502Z,99062.70
2019-06-26T00:17:52.301Z,99067.83
2019-06-26T00:19:56.215Z,99066.00
2019-06-26T00:22:00.043Z,99063.84
2019-06-26T00:24:04.024Z,99064.20
2019-06-26T00:26:07.770Z,99070.34
2019-06-26T00:28:11.757Z,99074.80
2019-06-26T00:30:17.329Z,99067.92
2019-06-26T00:32:23.287Z,99071.26
2019-06-26T00:34:27.180Z,99071.91
2019-06-26T00:36:31.060Z,99072.27
2019-06-26T00:38:35.016Z,99069.88
2019-06-26T00:40:38.946Z,99069.34
2019-06-26T00:42:42.796Z,99076.04
2019-06-26T00:44:46.692Z,99074.39
2019-06-26T00:46:50.567Z,99080.23
2019-06-26T00:48:56.407Z,99079.97
2019-06-26T00:51:00.253Z,99076.13
2019-06-26T00:53:04.216Z,99079.78
2019-06-26T00:55:08.506Z,99074.52
2019-06-26T00:57:13.477Z,99074.91
2019-06-26T00:59:17.306Z,99074.34
2019-06-26T01:01:21.192Z,99085.45
2019-06-26T01:03:25.110Z,99078.24
2019-06-26T01:05:29.073Z,99078.09
2019-06-26T01:07:33.215Z,99089.45
2019-06-26T01:09:37.012Z,99089.01
2019-06-26T01:11:41.142Z,99089.01
2019-06-26T01:13:57.313Z,99084.63
2019-06-26T01:15:52.655Z,99076.97
2019-06-26T01:17:57.546Z,99082.84
2019-06-26T01:20:01.483Z,99079.06
2019-06-26T01:22:05.406Z,99079.00
2019-06-26T01:24:09.346Z,99075.27
2019-06-26T01:26:13.077Z,99075.27
2019-06-26T01:28:17.989Z,99081.93
2019-06-26T01:30:23.037Z,99077.31
2019-06-26T01:32:26.949Z,99082.59
2019-06-26T01:34:31.054Z,99081.73
2019-06-26T01:36:34.955Z,99081.73
2019-06-26T01:38:38.926Z,99084.33
2019-06-26T01:40:43.081Z,99089.16
2019-06-26T01:42:46.857Z,99093.17
2019-06-26T01:44:50.783Z,99091.28
2019-06-26T01:46:54.669Z,99092.95
2019-06-26T01:48:58.550Z,99089.67
2019-06-26T01:51:02.464Z,99094.43
2019-06-26T01:53:06.376Z,99093.65
2019-06-26T01:55:11.320Z,99093.65
2019-06-26T01:57:15.211Z,99090.64
2019-06-26T01:59:19.120Z,99096.18
2019-06-26T02:01:23.165Z,99095.86
2019-06-26T02:03:26.934Z,99091.70
2019-06-26T02:05:30.835Z,99096.64
2019-06-26T02:07:34.719Z,99095.26
2019-06-26T02:09:38.633Z,99097.76
2019-06-26T02:11:42.548Z,99101.13
2019-06-26T02:13:46.433Z,99103.63
2019-06-26T02:15:50.365Z,99099.47
2019-06-26T02:17:54.245Z,99102.55
2019-06-26T02:19:58.163Z,99103.94
2019-06-26T02:22:02.085Z,99097.05
2019-06-26T02:24:06.044Z,99101.21
2019-06-26T02:26:09.960Z,99102.64
2019-06-26T02:28:13.795Z,99102.97
2019-06-26T02:30:19.152Z,99103.34
2019-06-26T02:32:23.049Z,99099.50
2019-06-26T02:34:26.916Z,99102.59
2019-06-26T02:36:30.845Z,99102.64
2019-06-26T02:38:34.995Z,99099.08
2019-06-26T02:40:38.888Z,99096.08
2019-06-26T02:42:42.796Z,99102.49
2019-06-26T02:44:53.338Z,99099.72
2019-06-26T02:46:52.298Z,99095.33
2019-06-26T02:48:57.233Z,99108.03
2019-06-26T02:51:01.235Z,99101.37
2019-06-26T02:53:05.229Z,99099.72
2019-06-26T02:55:09.295Z,99103.64
2019-06-26T02:57:13.231Z,99104.75
2019-06-26T02:59:17.074Z,99108.63
2019-06-26T03:01:21.074Z,99104.83
2019-06-26T03:03:24.919Z,99101.55
2019-06-26T03:05:28.816Z,99105.19
2019-06-26T03:07:32.693Z,99104.64
2019-06-26T03:09:36.612Z,99105.78
2019-06-26T03:11:40.575Z,99103.02
2019-06-26T03:13:44.399Z,99097.20
2019-06-26T03:15:50.506Z,99102.50
2019-06-26T03:17:55.658Z,99095.58
2019-06-26T03:19:59.197Z,99100.53
2019-06-26T03:22:03.318Z,99104.20
2019-06-26T03:24:07.219Z,99107.06
2019-06-26T03:26:11.308Z,99108.20
2019-06-26T03:28:15.073Z,99105.67
2019-06-26T03:30:20.197Z,99098.75
2019-06-26T03:32:25.118Z,99102.91
2019-06-26T03:34:29.096Z,99096.77
2019-06-26T03:36:32.892Z,99099.19
2019-06-26T03:38:36.926Z,99099.19
2019-06-26T03:40:40.832Z,99105.00
2019-06-26T03:42:44.609Z,99098.03
2019-06-26T03:44:48.590Z,99101.59
2019-06-26T03:46:54.295Z,99097.63
2019-06-26T03:48:58.134Z,99102.85
2019-06-26T03:51:02.057Z,99102.53
2019-06-26T03:53:06.107Z,99108.03
2019-06-26T03:55:10.005Z,99108.86
2019-06-26T03:57:13.756Z,99103.88
2019-06-26T03:59:17.685Z,99110.56
2019-06-26T04:01:22.599Z,99116.58
2019-06-26T04:03:27.545Z,99115.94
2019-06-26T04:05:31.420Z,99113.08
2019-06-26T04:07:35.399Z,99122.69
2019-06-26T04:09:39.257Z,99122.69
2019-06-26T04:11:43.421Z,99115.16
2019-06-26T04:13:47.258Z,99118.63
2019-06-26T04:15:51.470Z,99119.42
2019-06-26T04:17:57.386Z,99119.88
2019-06-26T04:20:01.323Z,99119.80
2019-06-26T04:22:05.328Z,99121.88
2019-06-26T04:24:09.304Z,99119.50
2019-06-26T04:26:13.141Z,99116.58
2019-06-26T04:28:17.029Z,99109.45
2019-06-26T04:30:21.629Z,99110.63
2019-06-26T04:32:25.463Z,99109.69
2019-06-26T04:34:29.370Z,99118.91
2019-06-26T04:36:33.275Z,99118.38
2019-06-26T04:38:37.253Z,99125.37
2019-06-26T04:40:41.130Z,99118.27
2019-06-26T04:42:44.979Z,99128.30
2019-06-26T04:44:48.891Z,99121.39
2019-06-26T04:46:52.798Z,99126.33
2019-06-26T04:48:56.700Z,99120.73
2019-06-26T04:51:00.625Z,99124.92
2019-06-26T04:53:04.695Z,99125.74
2019-06-26T04:55:09.514Z,99129.30
2019-06-26T04:57:13.332Z,99132.84
2019-06-26T04:59:17.232Z,99128.84
2019-06-26T05:01:20.981Z,99132.11
2019-06-26T05:03:24.835Z,99132.82
2019-06-26T05:05:38.887Z,99133.09
2019-06-26T05:07:34.297Z,99135.19
2019-06-26T05:09:38.018Z,99133.84
2019-06-26T05:11:41.762Z,99138.89
2019-06-26T05:13:45.473Z,99142.61
2019-06-26T05:15:49.226Z,99145.22
2019-06-26T05:17:53.012Z,99139.64
2019-06-26T05:19:56.730Z,99142.34
2019-06-26T05:22:00.533Z,99141.76
2019-06-26T05:24:04.262Z,99136.21
2019-06-26T05:26:08.061Z,99142.48
2019-06-26T05:28:11.793Z,99138.72
2019-06-26T05:30:16.905Z,99138.59
2019-06-26T05:32:20.591Z,99146.78
2019-06-26T05:34:24.463Z,99144.30
2019-06-26T05:36:28.201Z,99141.33
2019-06-26T05:38:31.934Z,99147.77
2019-06-26T05:40:35.662Z,99143.91
2019-06-26T05:42:39.376Z,99143.06
2019-06-26T05:44:43.173Z,99144.61
2019-06-26T05:46:46.968Z,99148.05
2019-06-26T05:48:50.745Z,99147.78
2019-06-26T05:50:54.922Z,99150.27
2019-06-26T05:52:58.644Z,99157.39
2019-06-26T05:55:02.604Z,99147.23
2019-06-26T05:57:06.392Z,99158.05
2019-06-26T05:59:10.110Z,99159.84
2019-06-26T06:01:13.877Z,99164.99
2019-06-26T06:03:18.014Z,99166.47
2019-06-26T06:05:22.090Z,99168.73
2019-06-26T06:07:25.835Z,99161.58
2019-06-26T06:09:29.632Z,99163.47
2019-06-26T06:11:33.355Z,99166.38
2019-06-26T06:13:37.077Z,99167.42
2019-06-26T06:15:40.810Z,99170.81
2019-06-26T06:17:44.723Z,99165.30
2019-06-26T06:19:48.445Z,99167.97
2019-06-26T06:21:52.230Z,99174.73
2019-06-26T06:23:55.987Z,99165.38
2019-06-26T06:25:59.808Z,99173.38
2019-06-26T06:28:03.617Z,99180.38
2019-06-26T06:30:07.931Z,99181.92
2019-06-26T06:32:11.689Z,99181.62
2019-06-26T06:34:15.391Z,99187.08
2019-06-26T06:36:19.115Z,99184.79
2019-06-26T06:38:22.847Z,99195.95
2019-06-26T06:40:26.640Z,99192.02
2019-06-26T06:42:30.412Z,99190.03
2019-06-26T06:44:34.346Z,99196.39
2019-06-26T06:46:38.062Z,99199.95
2019-06-26T06:48:41.779Z,99200.73
2019-06-26T06:50:45.632Z,99197.76
2019-06-26T06:52:49.373Z,99192.25
2019-06-26T06:54:53.091Z,99197.28
2019-06-26T06:56:56.941Z,99198.76
2019-06-26T06:59:00.846Z,99203.02
2019-06-26T07:01:04.833Z,99205.75
2019-06-26T07:03:08.663Z,99207.68
2019-06-26T07:05:12.644Z,99210.42
2019-06-26T07:07:16.359Z,99207.95
2019-06-26T07:09:20.223Z,99210.59
2019-06-26T07:11:24.049Z,99210.66
2019-06-26T07:13:27.768Z,99212.81
2019-06-26T07:15:31.758Z,99213.21
2019-06-26T07:17:35.634Z,99214.63
2019-06-26T07:19:39.463Z,99213.67
2019-06-26T07:21:43.374Z,99207.55
2019-06-26T07:23:47.295Z,99209.49
2019-06-26T07:25:51.013Z,99211.03
2019-06-26T07:27:54.880Z,99209.27
2019-06-26T07:29:58.667Z,99208.66
2019-06-26T07:32:02.392Z,99207.73
2019-06-26T07:34:06.176Z,99211.42
2019-06-26T07:36:10.040Z,99210.48
2019-06-26T07:38:13.850Z,99215.59
2019-06-26T07:40:18.062Z,99211.50
2019-06-26T07:42:21.832Z,99220.02
2019-06-26T07:44:25.570Z,99216.26
2019-06-26T07:46:29.289Z,99212.75
2019-06-26T07:48:33.020Z,99213.92
2019-06-26T07:50:36.787Z,99220.18
2019-06-26T07:52:40.552Z,99212.75
2019-06-26T07:54:44.284Z,99208.95
2019-06-26T07:56:48.081Z,99216.83
2019-06-26T07:58:51.832Z,99217.70
2019-06-26T08:00:55.604Z,99212.59
2019-06-26T08:02:59.546Z,99207.72
2019-06-26T08:05:03.343Z,99209.10
2019-06-26T08:07:07.358Z,99206.47
2019-06-26T08:09:11.155Z,99199.33
2019-06-26T08:11:15.222Z,99203.10
2019-06-26T08:13:19.176Z,99202.54
2019-06-26T08:15:23.240Z,99198.30
2019-06-26T08:17:27.125Z,99197.45
2019-06-26T08:19:30.857Z,99196.09
2019-06-26T08:21:34.632Z,99192.81
2019-06-26T08:23:38.458Z,99194.27
2019-06-26T08:25:42.348Z,99191.28
2019-06-26T08:27:46.267Z,99189.78
2019-06-26T08:29:50.068Z,99186.53
2019-06-26T08:31:53.887Z,99191.75
2019-06-26T08:33:57.782Z,99195.73
2019-06-26T08:36:01.488Z,99189.98
2019-06-26T08:38:11.273Z,99186.95
2019-06-26T08:40:11.977Z,99197.00
2019-06-26T08:42:15.707Z,99186.19
2019-06-26T08:44:19.560Z,99180.76
2019-06-26T08:46:23.339Z,99183.98
2019-06-26T08:48:38.814Z,99177.52
2019-06-26T08:50:32.766Z,99167.95
2019-06-26T08:52:36.601Z,99165.77
2019-06-26T08:54:40.315Z,99169.42
2019-06-26T08:56:44.266Z,99173.23
2019-06-26T08:58:47.999Z,99172.09
2019-06-26T09:00:51.715Z,99171.33
2019-06-26T09:02:55.496Z,99176.06
2019-06-26T09:04:59.257Z,99176.41
2019-06-26T09:07:03.128Z,99167.09
2019-06-26T09:09:07.659Z,99167.75
2019-06-26T09:11:11.529Z,99169.63
2019-06-26T09:13:15.245Z,99171.22
2019-06-26T09:15:19.513Z,99166.28
2019-06-26T09:17:23.240Z,99168.66
2019-06-26T09:19:26.966Z,99173.41
2019-06-26T09:21:31.390Z,99165.92
2019-06-26T09:23:35.369Z,99169.22
2019-06-26T09:25:39.103Z,99161.47
2019-06-26T09:27:42.973Z,99165.24
2019-06-26T09:29:46.714Z,99170.66
2019-06-26T09:31:50.499Z,99175.17
2019-06-26T09:33:54.289Z,99172.63
2019-06-26T09:35:58.261Z,99173.70
2019-06-26T09:38:02.161Z,99166.04
2019-06-26T09:40:06.648Z,99165.25
2019-06-26T09:42:10.438Z,99168.38
2019-06-26T09:44:14.296Z,99164.00
2019-06-26T09:46:18.109Z,99167.88
2019-06-26T09:48:21.838Z,99158.44
2019-06-26T09:50:25.629Z,99155.04
2019-06-26T09:52:29.495Z,99150.99
2019-06-26T09:54:33.228Z,99157.38
2019-06-26T09:56:37.088Z,99165.27
2019-06-26T09:58:40.918Z,99159.64
2019-06-26T10:00:44.660Z,99154.63
2019-06-26T10:02:48.365Z,99153.69
2019-06-26T10:04:52.237Z,99157.52
2019-06-26T10:06:55.950Z,99152.41
2019-06-26T10:08:59.847Z,99150.72
2019-06-26T10:11:03.714Z,99151.89
2019-06-26T10:13:07.456Z,99155.41
2019-06-26T10:15:11.967Z,99150.24
2019-06-26T10:17:15.821Z,99153.73
2019-06-26T10:19:19.623Z,99153.98
2019-06-26T10:21:23.801Z,99147.08
2019-06-26T10:23:27.795Z,99139.89
2019-06-26T10:25:31.532Z,99133.93
2019-06-26T10:27:35.280Z,99138.48
2019-06-26T10:29:39.194Z,99139.52
2019-06-26T10:31:42.985Z,99133.34
2019-06-26T10:33:46.895Z,99137.98
2019-06-26T10:35:50.733Z,99138.12
2019-06-26T10:37:54.518Z,99139.13
2019-06-26T10:39:58.247Z,99133.44
2019-06-26T10:42:02.174Z,99133.41
2019-06-26T10:44:06.184Z,99132.17
2019-06-26T10:46:09.912Z,99123.36
2019-06-26T10:48:13.705Z,99120.76
2019-06-26T10:50:17.928Z,99118.19
2019-06-26T10:52:21.648Z,99120.50
2019-06-26T10:54:25.520Z,99118.30
2019-06-26T10:56:29.454Z,99113.34
2019-06-26T10:58:33.174Z,99114.70
2019-06-26T11:00:37.359Z,99105.23
2019-06-26T11:02:41.403Z,99112.41
2019-06-26T11:04:45.245Z,99105.88
2019-06-26T11:06:49.181Z,99103.25
2019-06-26T11:08:53.259Z,99103.59
2019-06-26T11:10:57.208Z,99104.80
2019-06-26T11:13:01.151Z,99103.81
2019-06-26T11:15:05.712Z,99101.40
2019-06-26T11:17:09.409Z,99098.23
2019-06-26T11:19:13.226Z,99096.48
2019-06-26T11:21:17.198Z,99098.21
2019-06-26T11:23:20.992Z,99094.33
2019-06-26T11:25:24.916Z,99090.70
2019-06-26T11:27:28.814Z,99093.01
2019-06-26T11:29:32.546Z,99083.84
2019-06-26T11:31:36.291Z,99086.16
2019-06-26T11:33:40.024Z,99082.12
2019-06-26T11:35:43.838Z,99077.45
2019-06-26T11:37:47.727Z,99079.51
2019-06-26T11:39:51.867Z,99072.38
2019-06-26T11:41:55.761Z,99079.03
2019-06-26T11:43:59.489Z,99076.05
2019-06-26T11:46:03.429Z,99076.09
2019-06-26T11:48:07.380Z,99071.03
2019-06-26T11:50:13.023Z,99069.45
2019-06-26T11:52:16.981Z,99072.61
2019-06-26T11:54:20.902Z,99068.32
2019-06-26T11:56:24.685Z,99057.30
2019-06-26T11:58:28.723Z,99059.48
2019-06-26T12:00:32.446Z,99057.86
2019-06-26T12:02:36.432Z,99057.23
2019-06-26T12:04:40.687Z,99050.06
2019-06-26T12:06:46.279Z,99057.55
2019-06-26T12:08:50.187Z,99052.92
2019-06-26T12:10:53.899Z,99052.84
2019-06-26T12:12:57.623Z,99049.73
2019-06-26T12:15:01.519Z,99048.55
2019-06-26T12:17:05.232Z,99053.14
2019-06-26T12:19:08.958Z,99042.27
2019-06-26T12:21:12.834Z,99042.38
2019-06-26T12:23:16.706Z,99040.42
2019-06-26T12:25:20.579Z,99039.59
2019-06-26T12:27:24.577Z,99032.31
2019-06-26T12:29:28.404Z,99030.30
2019-06-26T12:31:32.388Z,99029.02
2019-06-26T12:33:36.110Z,99029.35
2019-06-26T12:35:40.972Z,99024.75
2019-06-26T12:37:44.864Z,99025.11
2019-06-26T12:39:48.596Z,99023.30
2019-06-26T12:41:52.435Z,99021.73
2019-06-26T12:43:56.347Z,99018.77
2019-06-26T12:46:00.263Z,99021.78
2019-06-26T12:48:04.057Z,99031.81
2019-06-26T12:50:08.730Z,99025.59
2019-06-26T12:52:12.433Z,99028.74
2019-06-26T12:54:16.206Z,99018.53
2019-06-26T12:56:19.999Z,99013.66
2019-06-26T12:58:23.816Z,99017.61
2019-06-26T13:00:27.686Z,99009.04
2019-06-26T13:02:31.583Z,99006.48
2019-06-26T13:04:35.371Z,99015.19
2019-06-26T13:06:39.286Z,99003.27
2019-06-26T13:08:43.147Z,99002.55
2019-06-26T13:10:50.045Z,99003.09
2019-06-26T13:12:52.434Z,98997.14
2019-06-26T13:14:56.362Z,98999.09
2019-06-26T13:17:00.069Z,98995.58
2019-06-26T13:19:03.840Z,98999.30
2019-06-26T13:21:07.727Z,98994.42
2019-06-26T13:23:14.629Z,98985.94
2019-06-26T13:25:17.082Z,98984.14
2019-06-26T13:27:20.797Z,98988.48
2019-06-26T13:29:24.508Z,98989.33
2019-06-26T13:31:28.288Z,98988.25
2019-06-26T13:33:32.077Z,98986.38
2019-06-26T13:35:35.784Z,98987.91
2019-06-26T13:37:39.513Z,98980.34
2019-06-26T13:39:43.211Z,98980.59
2019-06-26T13:41:46.946Z,98984.77
2019-06-26T13:43:50.793Z,98986.80
2019-06-26T13:45:54.494Z,98987.02
2019-06-26T13:47:58.210Z,98978.00
2019-06-26T13:50:02.756Z,98976.53
2019-06-26T13:52:06.621Z,98986.00
2019-06-26T13:54:10.801Z,98977.52
2019-06-26T13:56:14.523Z,98977.70
2019-06-26T13:58:18.384Z,98984.09
2019-06-26T14:00:23.651Z,98972.86
2019-06-26T14:02:27.504Z,98981.53
2019-06-26T14:04:31.193Z,98972.63
2019-06-26T14:06:35.011Z,98978.17
2019-06-26T14:08:38.716Z,98974.77
2019-06-26T14:10:42.574Z,98978.89
2019-06-26T14:12:46.369Z,98980.86
2019-06-26T14:14:57.366Z,98976.33
2019-06-26T14:16:55.615Z,98977.39
2019-06-26T14:18:59.424Z,98983.70
2019-06-26T14:21:03.327Z,98981.59
2019-06-26T14:23:07.118Z,98980.84
2019-06-26T14:25:11.068Z,98980.42
2019-06-26T14:27:14.831Z,98973.71
2019-06-26T14:29:21.196Z,98974.46
2019-06-26T14:31:24.351Z,98982.92
2019-06-26T14:33:28.078Z,98980.42
2019-06-26T14:35:31.778Z,98977.03
2019-06-26T14:37:35.621Z,98980.55
2019-06-26T14:39:41.101Z,98978.45
2019-06-26T14:41:45.026Z,98979.52
2019-06-26T14:43:48.760Z,98981.27
2019-06-26T14:45:52.455Z,98977.11
2019-06-26T14:47:56.162Z,98973.06
2019-06-26T14:49:59.861Z,98985.87
2019-06-26T14:52:03.812Z,98984.78
2019-06-26T14:54:07.730Z,98980.67
2019-06-26T14:56:11.575Z,98977.88
2019-06-26T14:58:15.462Z,98977.72
2019-06-26T15:00:19.246Z,98982.20
2019-06-26T15:02:23.070Z,98970.75
2019-06-26T15:04:26.843Z,98977.94
2019-06-26T15:06:30.538Z,98972.59
2019-06-26T15:08:34.285Z,98969.33
2019-06-26T15:10:38.055Z,98970.58
2019-06-26T15:12:41.838Z,98967.69
2019-06-26T15:14:45.583Z,98969.05
2019-06-26T15:16:49.443Z,98975.25
2019-06-26T15:18:53.165Z,98968.00
2019-06-26T15:20:56.972Z,98964.75
2019-06-26T15:23:00.690Z,98961.20
2019-06-26T15:25:04.787Z,98962.10
2019-06-26T15:27:08.590Z,98958.68
2019-06-26T15:29:12.390Z,98960.92
2019-06-26T15:31:16.221Z,98957.42
2019-06-26T15:33:19.919Z,98954.77
2019-06-26T15:35:23.823Z,98956.81
2019-06-26T15:37:27.546Z,98956.00
2019-06-26T15:39:31.308Z,98955.02
2019-06-26T15:41:35.189Z,98942.44
2019-06-26T15:43:39.170Z,98942.56
2019-06-26T15:45:43.160Z,98952.22
2019-06-26T15:47:46.920Z,98949.86
2019-06-26T15:49:50.652Z,98948.31
2019-06-26T15:51:55.120Z,98948.42
2019-06-26T15:54:00.039Z,98947.73
2019-06-26T15:56:04.002Z,98944.52
2019-06-26T15:58:07.711Z,98937.42
2019-06-26T16:00:12.422Z,98948.66
2019-06-26T16:02:16.132Z,98947.11
2019-06-26T16:04:19.927Z,98950.00
2019-06-26T16:06:23.639Z,98948.23
2019-06-26T16:08:27.459Z,98953.23
2019-06-26T16:10:34.285Z,98948.85
2019-06-26T16:12:36.722Z,98952.59
2019-06-26T16:14:40.542Z,98951.84
2019-06-26T16:16:45.901Z,98954.52
2019-06-26T16:18:54.941Z,98954.61
2019-06-26T16:20:58.809Z,98959.18
2019-06-26T16:23:02.557Z,98957.17
2019-06-26T16:25:07.164Z,98957.91
2019-06-26T16:27:10.876Z,98963.54
2019-06-26T16:29:14.591Z,98959.14
2019-06-26T16:31:18.308Z,98955.34
2019-06-26T16:33:22.071Z,98957.42
2019-06-26T16:35:25.775Z,98957.66
2019-06-26T16:37:29.492Z,98960.58
2019-06-26T16:39:33.231Z,98964.92
2019-06-26T16:41:37.130Z,98962.90
2019-06-26T16:43:40.931Z,98958.70
2019-06-26T16:45:44.642Z,98961.20
2019-06-26T16:47:48.350Z,98968.58
2019-06-26T16:49:52.069Z,98962.73
2019-06-26T16:51:55.780Z,98954.88
2019-06-26T16:53:59.497Z,98954.28
2019-06-26T16:56:03.346Z,98963.64
2019-06-26T16:58:07.094Z,98961.62
2019-06-26T17:00:11.191Z,98959.02
2019-06-26T17:02:15.113Z,98961.06
2019-06-26T17:04:18.966Z,98958.87
2019-06-26T17:06:22.683Z,98959.09
2019-06-26T17:08:26.559Z,98960.57
2019-06-26T17:10:30.457Z,98963.64
2019-06-26T17:12:34.379Z,98961.27
2019-06-26T17:14:38.267Z,98961.47
2019-06-26T17:16:42.095Z,98959.48
2019-06-26T17:18:46.150Z,98957.89
2019-06-26T17:20:49.975Z,98968.27
2019-06-26T17:23:05.058Z,98971.14
2019-06-26T17:24:59.542Z,98964.08
2019-06-26T17:27:03.332Z,98968.73
2019-06-26T17:29:07.130Z,98965.71
2019-06-26T17:31:10.840Z,98963.87
2019-06-26T17:33:14.634Z,98971.81
2019-06-26T17:35:18.458Z,98966.55
2019-06-26T17:37:22.169Z,98972.04
2019-06-26T17:39:25.886Z,98967.81
2019-06-26T17:41:29.652Z,98966.20
2019-06-26T17:43:33.365Z,98963.96
2019-06-26T17:45:37.097Z,98972.10
2019-06-26T17:47:41.011Z,98964.79
2019-06-26T17:49:44.860Z,98963.75
2019-06-26T17:51:48.586Z,98971.67
2019-06-26T17:53:52.472Z,98960.94
2019-06-26T17:55:56.437Z,98961.14
2019-06-26T17:58:00.338Z,98958.52
2019-06-26T18:00:04.935Z,98959.52
2019-06-26T18:02:08.685Z,98964.17
2019-06-26T18:04:12.448Z,98961.31
2019-06-26T18:06:16.165Z,98959.09
2019-06-26T18:08:19.868Z,98959.88
2019-06-26T18:10:23.780Z,98957.86
2019-06-26T18:12:27.491Z,98963.92
2019-06-26T18:14:31.353Z,98968.35
2019-06-26T18:16:35.298Z,98957.02
2019-06-26T18:18:39.010Z,98956.41
2019-06-26T18:20:42.816Z,98961.20
2019-06-26T18:22:46.598Z,98956.73
2019-06-26T18:24:50.396Z,98954.86
2019-06-26T18:26:54.097Z,98962.52
2019-06-26T18:28:57.817Z,98965.93
2019-06-26T18:31:01.739Z,98956.00
2019-06-26T18:33:05.605Z,98960.38
2019-06-26T18:35:10.083Z,98967.42
2019-06-26T18:37:13.817Z,98955.64
2019-06-26T18:39:17.537Z,98965.73
2019-06-26T18:41:21.461Z,98966.66
2019-06-26T18:43:27.608Z,98968.45
2019-06-26T18:45:31.421Z,98970.98
2019-06-26T18:47:35.211Z,98976.97
2019-06-26T18:49:39.245Z,98975.09
2019-06-26T18:51:43.090Z,98972.00
2019-06-26T18:53:53.464Z,98976.56
2019-06-26T18:55:52.560Z,98979.14
2019-06-26T18:57:56.491Z,98977.19
2019-06-26T19:00:00.275Z,98976.12
2019-06-26T19:02:04.477Z,98981.66
2019-06-26T19:04:08.295Z,98982.78
2019-06-26T19:06:12.280Z,98974.61
2019-06-26T19:08:16.218Z,98973.31
2019-06-26T19:10:20.686Z,98970.98
2019-06-26T19:12:24.656Z,98972.91
2019-06-26T19:14:28.478Z,98980.48
2019-06-26T19:16:35.375Z,98974.53
2019-06-26T19:18:37.887Z,98980.03
2019-06-26T19:20:41.707Z,98980.69
2019-06-26T19:22:47.521Z,98986.70
2019-06-26T19:24:51.020Z,98983.89
2019-06-26T19:26:54.879Z,98984.91
2019-06-26T19:28:58.795Z,98986.35
2019-06-26T19:31:02.580Z,98988.89
2019-06-26T19:33:06.405Z,98998.30
2019-06-26T19:35:18.883Z,98994.01
2019-06-26T19:37:15.968Z,98991.44
2019-06-26T19:39:20.953Z,98989.77
2019-06-26T19:41:26.155Z,98993.95
2019-06-26T19:43:29.866Z,98988.31
2019-06-26T19:45:33.803Z,98987.70
2019-06-26T19:47:37.522Z,98997.02
2019-06-26T19:49:41.404Z,98999.11
2019-06-26T19:51:45.600Z,99001.31
2019-06-26T19:53:49.385Z,99004.31
2019-06-26T19:55:53.304Z,99003.09
2019-06-26T19:57:57.244Z,99008.55
2019-06-26T20:00:01.008Z,99008.83
2019-06-26T20:02:04.927Z,99014.52
2019-06-26T20:04:08.720Z,99013.39
2019-06-26T20:06:12.619Z,99011.75
2019-06-26T20:08:16.366Z,99010.68
2019-06-26T20:10:20.562Z,99017.92
2019-06-26T20:12:24.400Z,99018.59
2019-06-26T20:14:28.146Z,99011.17
2019-06-26T20:16:32.094Z,99014.02
2019-06-26T20:18:35.879Z,99018.98
2019-06-26T20:20:39.628Z,99016.77
2019-06-26T20:22:43.625Z,99012.58
2019-06-26T20:24:48.123Z,99013.66
2019-06-26T20:26:52.039Z,99016.25
2019-06-26T20:28:55.830Z,99019.06
2019-06-26T20:30:59.582Z,99013.84
2019-06-26T20:33:03.377Z,99017.34
2019-06-26T20:35:07.823Z,99020.40
2019-06-26T20:37:11.551Z,99019.85
2019-06-26T20:39:15.562Z,99020.33
2019-06-26T20:41:19.280Z,99015.91
2019-06-26T20:43:23.800Z,99016.74
2019-06-26T20:45:27.684Z,99021.27
2019-06-26T20:47:31.393Z,99017.41
2019-06-26T20:49:35.271Z,99023.57
2019-06-26T20:51:39.107Z,99021.94
2019-06-26T20:53:42.842Z,99022.41
2019-06-26T20:55:46.561Z,99021.70
2019-06-26T20:57:50.423Z,99027.86
2019-06-26T20:59:54.301Z,99030.78
2019-06-26T21:01:58.055Z,99032.15
2019-06-26T21:04:01.910Z,99030.02
2019-06-26T21:06:05.645Z,99026.03
2019-06-26T21:08:09.361Z,99030.67
2019-06-26T21:10:13.368Z,99036.16
2019-06-26T21:12:17.342Z,99034.18
2019-06-26T21:14:21.047Z,99033.58
2019-06-26T21:16:24.771Z,99034.39
2019-06-26T21:18:28.549Z,99034.39
2019-06-26T21:20:32.328Z,99035.22
2019-06-26T21:22:36.251Z,99040.56
2019-06-26T21:24:40.154Z,99041.17
2019-06-26T21:26:44.047Z,99041.03
2019-06-26T21:28:47.957Z,99034.14
2019-06-26T21:30:52.919Z,99043.58
2019-06-26T21:32:56.825Z,99045.41
2019-06-26T21:35:00.704Z,99048.27
2019-06-26T21:37:04.604Z,99041.69
2019-06-26T21:39:08.653Z,99041.78
2019-06-26T21:41:12.401Z,99045.55
2019-06-26T21:43:16.885Z,99048.91
2019-06-26T21:45:21.387Z,99044.34
2019-06-26T21:47:25.190Z,99039.88
2019-06-26T21:49:29.057Z,99048.69
2019-06-26T21:51:32.942Z,99041.90
2019-06-26T21:53:37.677Z,99046.54
2019-06-26T21:55:41.772Z,99048.93
2019-06-26T21:57:45.702Z,99054.14
2019-06-26T21:59:49.647Z,99047.92
2019-06-26T22:01:53.640Z,99047.55
2019-06-26T22:03:57.467Z,99049.14
2019-06-26T22:06:01.356Z,99046.54
2019-06-26T22:08:05.423Z,99047.27
2019-06-26T22:10:09.667Z,99046.22
2019-06-26T22:12:13.796Z,99049.94
2019-06-26T22:14:17.613Z,99042.48
2019-06-26T22:16:21.630Z,99044.45
2019-06-26T22:18:25.555Z,99041.08
2019-06-26T22:20:29.520Z,99037.22
2019-06-26T22:22:33.461Z,99045.02
2019-06-26T22:24:37.250Z,99054.22
2019-06-26T22:26:41.765Z,99053.39
2019-06-26T22:28:45.831Z,99047.23
2019-06-26T22:30:51.690Z,99044.09
2019-06-26T22:32:55.548Z,99042.48
2019-06-26T22:34:59.475Z,99052.00
2019-06-26T22:37:03.482Z,99052.83
2019-06-26T22:39:07.467Z,99053.05
2019-06-26T22:41:11.325Z,99058.05
2019-06-26T22:43:15.439Z,99060.62
2019-06-26T22:45:19.396Z,99057.33
2019-06-26T22:47:23.422Z,99056.85
2019-06-26T22:49:27.287Z,99054.72
2019-06-26T22:51:31.212Z,99058.78
2019-06-26T22:53:35.099Z,99067.82
2019-06-26T22:55:38.911Z,99070.45
2019-06-26T22:57:42.932Z,99066.22
2019-06-26T22:59:46.792Z,99070.43
2019-06-26T23:01:50.830Z,99071.05
2019-06-26T23:03:54.786Z,99069.75
2019-06-26T23:05:58.768Z,99075.59
2019-06-26T23:08:02.783Z,99074.69
2019-06-26T23:10:07.261Z,99073.13
2019-06-26T23:12:14.286Z,99076.83
2019-06-26T23:14:18.044Z,99074.13
2019-06-26T23:16:21.874Z,99074.21
2019-06-26T23:18:25.890Z,99062.80
2019-06-26T23:20:29.707Z,99074.04
2019-06-26T23:22:33.590Z,99067.98
2019-06-26T23:24:37.573Z,99076.20
2019-06-26T23:26:41.639Z,99078.73
2019-06-26T23:28:45.700Z,99080.69
2019-06-26T23:30:49.589Z,99072.08
2019-06-26T23:32:53.571Z,99079.30
2019-06-26T23:34:58.290Z,99069.97
2019-06-26T23:37:02.134Z,99073.98
2019-06-26T23:39:07.484Z,99067.52
2019-06-26T23:41:11.221Z,99069.88
2019-06-26T23:43:15.326Z,99061.45
2019-06-26T23:45:19.572Z,99065.15
2019-06-26T23:47:23.499Z,99070.20
2019-06-26T23:49:27.435Z,99068.09
2019-06-26T23:51:31.388Z,99075.94
2019-06-26T23:53:35.290Z,99073.23
2019-06-26T23:55:39.118Z,99084.72
2019-06-26T23:57:57.892Z,99079.72
2019-06-26T23:59:48.580Z,99081.45
